sensor_id;sensor_type;location;lat;lon;timestamp;P1;durP1;ratioP1;P2;durP2;ratioP2
19057;SDS011;9662;53.612;9.914;2022-12-18T00:02:01;47.65;;;42.70;;
19057;SDS011;9662;53.612;9.914;2022-12-18T00:04:28;41.15;;;37.45;;
19057;SDS011;9662;53.612;9.914;2022-12-18T00:06:57;43.15;;;39.00;;
19057;SDS011;9662;53.612;9.914;2022-12-18T00:09:24;53.43;;;47.97;;
19057;SDS011;9662;53.612;9.914;2022-12-18T00:11:51;44.05;;;40.03;;
19057;SDS011;9662;53.612;9.914;2022-12-18T00:14:19;57.80;;;48.93;;
19057;SDS011;9662;53.612;9.914;2022-12-18T00:16:46;67.38;;;53.92;;
19057;SDS011;9662;53.612;9.914;2022-12-18T00:19:13;55.33;;;48.83;;
19057;SDS011;9662;53.612;9.914;2022-12-18T00:21:40;59.67;;;47.05;;
19057;SDS011;9662;53.612;9.914;2022-12-18T00:24:09;40.97;;;37.17;;
19057;SDS011;9662;53.612;9.914;2022-12-18T00:26:37;31.05;;;28.45;;
19057;SDS011;9662;53.612;9.914;2022-12-18T00:29:06;29.23;;;26.65;;
19057;SDS011;9662;53.612;9.914;2022-12-18T00:31:33;29.55;;;27.35;;
19057;SDS011;9662;53.612;9.914;2022-12-18T00:34:00;23.83;;;21.88;;
19057;SDS011;9662;53.612;9.914;2022-12-18T00:36:28;23.08;;;21.05;;
19057;SDS011;9662;53.612;9.914;2022-12-18T00:38:56;22.73;;;20.90;;
19057;SDS011;9662;53.612;9.914;2022-12-18T00:41:25;26.77;;;24.83;;
19057;SDS011;9662;53.612;9.914;2022-12-18T00:44:11;29.63;;;26.98;;
19057;SDS011;9662;53.612;9.914;2022-12-18T00:46:38;23.60;;;21.70;;
19057;SDS011;9662;53.612;9.914;2022-12-18T00:49:05;40.22;;;36.30;;
19057;SDS011;9662;53.612;9.914;2022-12-18T00:51:33;65.78;;;54.25;;
19057;SDS011;9662;53.612;9.914;2022-12-18T00:54:00;66.00;;;57.17;;
19057;SDS011;9662;53.612;9.914;2022-12-18T00:56:28;129.35;;;74.05;;
19057;SDS011;9662;53.612;9.914;2022-12-18T00:58:56;207.57;;;87.87;;
19057;SDS011;9662;53.612;9.914;2022-12-18T01:01:23;248.20;;;94.43;;
19057;SDS011;9662;53.612;9.914;2022-12-18T01:03:50;205.73;;;86.40;;
19057;SDS011;9662;53.612;9.914;2022-12-18T01:06:17;149.40;;;79.90;;
19057;SDS011;9662;53.612;9.914;2022-12-18T01:08:44;189.55;;;87.10;;
19057;SDS011;9662;53.612;9.914;2022-12-18T01:11:13;181.82;;;87.55;;
19057;SDS011;9662;53.612;9.914;2022-12-18T01:13:41;182.98;;;87.10;;
19057;SDS011;9662;53.612;9.914;2022-12-18T01:16:10;202.90;;;88.90;;
19057;SDS011;9662;53.612;9.914;2022-12-18T01:18:37;169.25;;;80.60;;
19057;SDS011;9662;53.612;9.914;2022-12-18T01:21:05;191.60;;;86.43;;
19057;SDS011;9662;53.612;9.914;2022-12-18T01:23:32;193.25;;;84.70;;
19057;SDS011;9662;53.612;9.914;2022-12-18T01:26:03;184.63;;;82.72;;
19057;SDS011;9662;53.612;9.914;2022-12-18T01:28:30;200.18;;;86.70;;
19057;SDS011;9662;53.612;9.914;2022-12-18T01:30:59;203.43;;;87.47;;
19057;SDS011;9662;53.612;9.914;2022-12-18T01:33:35;230.45;;;90.82;;
19057;SDS011;9662;53.612;9.914;2022-12-18T01:36:02;250.32;;;93.35;;
19057;SDS011;9662;53.612;9.914;2022-12-18T01:38:29;215.10;;;88.93;;
19057;SDS011;9662;53.612;9.914;2022-12-18T01:40:57;339.73;;;102.10;;
19057;SDS011;9662;53.612;9.914;2022-12-18T01:46:07;288.38;;;98.45;;
19057;SDS011;9662;53.612;9.914;2022-12-18T01:48:34;173.73;;;82.40;;
19057;SDS011;9662;53.612;9.914;2022-12-18T01:51:01;145.50;;;78.60;;
19057;SDS011;9662;53.612;9.914;2022-12-18T01:53:28;142.15;;;77.05;;
19057;SDS011;9662;53.612;9.914;2022-12-18T01:55:56;125.78;;;71.63;;
19057;SDS011;9662;53.612;9.914;2022-12-18T01:58:24;133.57;;;75.30;;
19057;SDS011;9662;53.612;9.914;2022-12-18T02:00:54;111.70;;;70.25;;
19057;SDS011;9662;53.612;9.914;2022-12-18T02:03:23;93.90;;;64.82;;
19057;SDS011;9662;53.612;9.914;2022-12-18T02:05:51;62.58;;;53.53;;
19057;SDS011;9662;53.612;9.914;2022-12-18T02:08:22;33.78;;;30.90;;
19057;SDS011;9662;53.612;9.914;2022-12-18T02:10:54;100.70;;;67.47;;
19057;SDS011;9662;53.612;9.914;2022-12-18T02:13:25;103.43;;;68.90;;
19057;SDS011;9662;53.612;9.914;2022-12-18T02:15:58;69.95;;;57.55;;
19057;SDS011;9662;53.612;9.914;2022-12-18T02:18:30;95.72;;;67.57;;
19057;SDS011;9662;53.612;9.914;2022-12-18T02:20:59;89.05;;;64.20;;
19057;SDS011;9662;53.612;9.914;2022-12-18T02:23:33;114.07;;;71.35;;
19057;SDS011;9662;53.612;9.914;2022-12-18T02:26:06;119.95;;;75.50;;
19057;SDS011;9662;53.612;9.914;2022-12-18T02:28:36;98.07;;;65.70;;
19057;SDS011;9662;53.612;9.914;2022-12-18T02:31:06;98.28;;;67.97;;
19057;SDS011;9662;53.612;9.914;2022-12-18T02:33:35;107.78;;;71.93;;
19057;SDS011;9662;53.612;9.914;2022-12-18T02:36:03;99.10;;;67.32;;
19057;SDS011;9662;53.612;9.914;2022-12-18T02:38:30;109.75;;;70.07;;
19057;SDS011;9662;53.612;9.914;2022-12-18T02:40:58;104.03;;;68.55;;
19057;SDS011;9662;53.612;9.914;2022-12-18T02:43:27;128.27;;;72.45;;
19057;SDS011;9662;53.612;9.914;2022-12-18T02:45:57;152.25;;;80.90;;
19057;SDS011;9662;53.612;9.914;2022-12-18T02:48:26;186.65;;;84.82;;
19057;SDS011;9662;53.612;9.914;2022-12-18T02:50:56;176.50;;;83.57;;
19057;SDS011;9662;53.612;9.914;2022-12-18T02:53:26;187.20;;;81.25;;
19057;SDS011;9662;53.612;9.914;2022-12-18T02:55:58;219.25;;;87.75;;
19057;SDS011;9662;53.612;9.914;2022-12-18T02:58:29;214.52;;;89.13;;
19057;SDS011;9662;53.612;9.914;2022-12-18T03:00:58;227.98;;;89.28;;
19057;SDS011;9662;53.612;9.914;2022-12-18T03:03:27;251.10;;;94.53;;
19057;SDS011;9662;53.612;9.914;2022-12-18T03:05:56;254.60;;;93.43;;
19057;SDS011;9662;53.612;9.914;2022-12-18T03:08:26;251.77;;;90.38;;
19057;SDS011;9662;53.612;9.914;2022-12-18T03:10:55;272.20;;;92.15;;
19057;SDS011;9662;53.612;9.914;2022-12-18T03:13:30;329.63;;;97.85;;
19057;SDS011;9662;53.612;9.914;2022-12-18T03:15:59;311.35;;;94.82;;
19057;SDS011;9662;53.612;9.914;2022-12-18T03:18:29;357.07;;;100.13;;
19057;SDS011;9662;53.612;9.914;2022-12-18T03:20:58;381.67;;;104.32;;
19057;SDS011;9662;53.612;9.914;2022-12-18T03:23:27;356.25;;;102.13;;
19057;SDS011;9662;53.612;9.914;2022-12-18T03:25:58;397.65;;;105.50;;
19057;SDS011;9662;53.612;9.914;2022-12-18T03:28:25;373.85;;;103.53;;
19057;SDS011;9662;53.612;9.914;2022-12-18T03:30:56;370.02;;;100.00;;
19057;SDS011;9662;53.612;9.914;2022-12-18T03:33:27;343.48;;;100.45;;
19057;SDS011;9662;53.612;9.914;2022-12-18T03:35:56;347.42;;;99.50;;
19057;SDS011;9662;53.612;9.914;2022-12-18T03:38:23;360.42;;;100.47;;
19057;SDS011;9662;53.612;9.914;2022-12-18T03:40:53;318.83;;;94.07;;
19057;SDS011;9662;53.612;9.914;2022-12-18T03:43:25;282.33;;;92.10;;
19057;SDS011;9662;53.612;9.914;2022-12-18T03:45:57;276.55;;;94.15;;
19057;SDS011;9662;53.612;9.914;2022-12-18T03:48:29;289.95;;;91.35;;
19057;SDS011;9662;53.612;9.914;2022-12-18T03:51:01;267.40;;;89.28;;
19057;SDS011;9662;53.612;9.914;2022-12-18T03:53:31;272.65;;;91.60;;
19057;SDS011;9662;53.612;9.914;2022-12-18T03:56:00;292.58;;;94.55;;
19057;SDS011;9662;53.612;9.914;2022-12-18T03:58:27;284.10;;;91.60;;
19057;SDS011;9662;53.612;9.914;2022-12-18T04:00:56;391.40;;;102.18;;
19057;SDS011;9662;53.612;9.914;2022-12-18T04:03:23;366.38;;;100.63;;
19057;SDS011;9662;53.612;9.914;2022-12-18T04:05:52;343.50;;;97.13;;
19057;SDS011;9662;53.612;9.914;2022-12-18T04:08:21;333.95;;;97.90;;
19057;SDS011;9662;53.612;9.914;2022-12-18T04:10:48;322.15;;;96.68;;
19057;SDS011;9662;53.612;9.914;2022-12-18T04:13:21;195.32;;;83.07;;
19057;SDS011;9662;53.612;9.914;2022-12-18T04:15:48;202.17;;;85.53;;
19057;SDS011;9662;53.612;9.914;2022-12-18T04:18:15;193.95;;;82.57;;
19057;SDS011;9662;53.612;9.914;2022-12-18T04:20:42;194.75;;;81.85;;
19057;SDS011;9662;53.612;9.914;2022-12-18T04:23:11;234.67;;;85.33;;
19057;SDS011;9662;53.612;9.914;2022-12-18T04:25:38;227.48;;;84.68;;
19057;SDS011;9662;53.612;9.914;2022-12-18T04:28:05;252.32;;;86.68;;
19057;SDS011;9662;53.612;9.914;2022-12-18T04:30:32;268.50;;;87.25;;
19057;SDS011;9662;53.612;9.914;2022-12-18T04:32:59;301.90;;;92.78;;
19057;SDS011;9662;53.612;9.914;2022-12-18T04:35:26;213.55;;;81.45;;
19057;SDS011;9662;53.612;9.914;2022-12-18T04:37:53;217.20;;;82.78;;
19057;SDS011;9662;53.612;9.914;2022-12-18T04:40:21;205.35;;;80.93;;
19057;SDS011;9662;53.612;9.914;2022-12-18T04:42:49;170.75;;;77.90;;
19057;SDS011;9662;53.612;9.914;2022-12-18T04:45:16;233.65;;;84.85;;
19057;SDS011;9662;53.612;9.914;2022-12-18T04:47:43;268.85;;;89.75;;
19057;SDS011;9662;53.612;9.914;2022-12-18T04:50:10;264.25;;;87.72;;
19057;SDS011;9662;53.612;9.914;2022-12-18T04:52:37;245.60;;;83.90;;
19057;SDS011;9662;53.612;9.914;2022-12-18T04:55:04;228.23;;;86.85;;
19057;SDS011;9662;53.612;9.914;2022-12-18T04:57:33;232.90;;;86.97;;
19057;SDS011;9662;53.612;9.914;2022-12-18T05:00:00;189.48;;;79.35;;
19057;SDS011;9662;53.612;9.914;2022-12-18T05:02:27;240.93;;;86.67;;
19057;SDS011;9662;53.612;9.914;2022-12-18T05:04:54;197.45;;;81.45;;
19057;SDS011;9662;53.612;9.914;2022-12-18T05:07:21;148.10;;;72.10;;
19057;SDS011;9662;53.612;9.914;2022-12-18T05:09:48;170.67;;;78.20;;
19057;SDS011;9662;53.612;9.914;2022-12-18T05:12:15;184.18;;;77.60;;
19057;SDS011;9662;53.612;9.914;2022-12-18T05:14:44;50.13;;;44.88;;
19057;SDS011;9662;53.612;9.914;2022-12-18T05:17:11;50.95;;;45.90;;
19057;SDS011;9662;53.612;9.914;2022-12-18T05:19:38;66.80;;;52.03;;
19057;SDS011;9662;53.612;9.914;2022-12-18T05:22:05;43.53;;;39.23;;
19057;SDS011;9662;53.612;9.914;2022-12-18T05:24:35;55.53;;;49.60;;
19057;SDS011;9662;53.612;9.914;2022-12-18T05:27:02;32.05;;;29.80;;
19057;SDS011;9662;53.612;9.914;2022-12-18T05:29:29;39.30;;;35.90;;
19057;SDS011;9662;53.612;9.914;2022-12-18T05:31:58;31.70;;;29.40;;
19057;SDS011;9662;53.612;9.914;2022-12-18T05:34:25;23.20;;;21.70;;
19057;SDS011;9662;53.612;9.914;2022-12-18T05:36:52;18.77;;;17.60;;
19057;SDS011;9662;53.612;9.914;2022-12-18T05:39:20;21.23;;;19.50;;
19057;SDS011;9662;53.612;9.914;2022-12-18T05:41:47;17.33;;;16.40;;
19057;SDS011;9662;53.612;9.914;2022-12-18T05:44:14;22.27;;;20.98;;
19057;SDS011;9662;53.612;9.914;2022-12-18T05:46:41;40.97;;;37.27;;
19057;SDS011;9662;53.612;9.914;2022-12-18T05:49:09;81.90;;;56.13;;
19057;SDS011;9662;53.612;9.914;2022-12-18T05:51:36;141.43;;;69.60;;
19057;SDS011;9662;53.612;9.914;2022-12-18T05:54:04;95.78;;;57.60;;
19057;SDS011;9662;53.612;9.914;2022-12-18T05:56:31;130.17;;;66.77;;
19057;SDS011;9662;53.612;9.914;2022-12-18T05:58:58;120.15;;;64.55;;
19057;SDS011;9662;53.612;9.914;2022-12-18T06:01:26;37.90;;;34.50;;
19057;SDS011;9662;53.612;9.914;2022-12-18T06:03:53;92.25;;;56.60;;
19057;SDS011;9662;53.612;9.914;2022-12-18T06:06:23;61.35;;;48.97;;
19057;SDS011;9662;53.612;9.914;2022-12-18T06:08:50;65.50;;;50.97;;
19057;SDS011;9662;53.612;9.914;2022-12-18T06:11:18;110.63;;;64.63;;
19057;SDS011;9662;53.612;9.914;2022-12-18T06:13:45;104.90;;;62.47;;
19057;SDS011;9662;53.612;9.914;2022-12-18T06:16:13;96.30;;;62.05;;
19057;SDS011;9662;53.612;9.914;2022-12-18T06:18:40;77.00;;;56.05;;
19057;SDS011;9662;53.612;9.914;2022-12-18T06:21:07;49.15;;;44.08;;
19057;SDS011;9662;53.612;9.914;2022-12-18T06:23:35;76.05;;;56.50;;
19057;SDS011;9662;53.612;9.914;2022-12-18T06:26:03;120.22;;;66.43;;
19057;SDS011;9662;53.612;9.914;2022-12-18T06:28:31;137.20;;;70.40;;
19057;SDS011;9662;53.612;9.914;2022-12-18T06:30:58;190.75;;;80.40;;
19057;SDS011;9662;53.612;9.914;2022-12-18T06:33:25;203.32;;;80.40;;
19057;SDS011;9662;53.612;9.914;2022-12-18T06:35:53;200.45;;;80.60;;
19057;SDS011;9662;53.612;9.914;2022-12-18T06:38:20;195.53;;;79.77;;
19057;SDS011;9662;53.612;9.914;2022-12-18T06:40:48;116.38;;;65.38;;
19057;SDS011;9662;53.612;9.914;2022-12-18T06:43:15;135.60;;;68.33;;
19057;SDS011;9662;53.612;9.914;2022-12-18T06:45:42;164.05;;;74.80;;
19057;SDS011;9662;53.612;9.914;2022-12-18T06:48:11;256.83;;;84.57;;
19057;SDS011;9662;53.612;9.914;2022-12-18T06:50:41;250.20;;;84.90;;
19057;SDS011;9662;53.612;9.914;2022-12-18T06:53:08;229.95;;;85.43;;
19057;SDS011;9662;53.612;9.914;2022-12-18T06:55:35;171.07;;;75.43;;
19057;SDS011;9662;53.612;9.914;2022-12-18T06:58:04;222.65;;;82.85;;
19057;SDS011;9662;53.612;9.914;2022-12-18T07:00:31;293.25;;;89.68;;
19057;SDS011;9662;53.612;9.914;2022-12-18T07:02:58;458.58;;;105.75;;
19057;SDS011;9662;53.612;9.914;2022-12-18T07:05:25;370.48;;;97.47;;
19057;SDS011;9662;53.612;9.914;2022-12-18T07:07:52;305.00;;;91.07;;
19057;SDS011;9662;53.612;9.914;2022-12-18T07:10:20;230.25;;;81.65;;
19057;SDS011;9662;53.612;9.914;2022-12-18T07:12:47;254.82;;;85.95;;
19057;SDS011;9662;53.612;9.914;2022-12-18T07:15:15;329.05;;;93.80;;
19057;SDS011;9662;53.612;9.914;2022-12-18T07:17:42;278.52;;;88.57;;
19057;SDS011;9662;53.612;9.914;2022-12-18T07:20:09;104.33;;;61.07;;
19057;SDS011;9662;53.612;9.914;2022-12-18T07:22:37;75.57;;;56.47;;
19057;SDS011;9662;53.612;9.914;2022-12-18T07:25:04;84.27;;;56.73;;
19057;SDS011;9662;53.612;9.914;2022-12-18T07:27:31;113.47;;;64.67;;
19057;SDS011;9662;53.612;9.914;2022-12-18T07:29:58;113.70;;;65.97;;
19057;SDS011;9662;53.612;9.914;2022-12-18T07:32:27;90.40;;;60.55;;
19057;SDS011;9662;53.612;9.914;2022-12-18T07:34:54;61.40;;;52.13;;
19057;SDS011;9662;53.612;9.914;2022-12-18T07:37:21;50.33;;;43.67;;
19057;SDS011;9662;53.612;9.914;2022-12-18T07:39:49;49.55;;;44.78;;
19057;SDS011;9662;53.612;9.914;2022-12-18T07:42:16;34.55;;;31.75;;
19057;SDS011;9662;53.612;9.914;2022-12-18T07:44:58;33.60;;;31.27;;
19057;SDS011;9662;53.612;9.914;2022-12-18T07:47:27;37.17;;;34.25;;
19057;SDS011;9662;53.612;9.914;2022-12-18T07:49:57;39.95;;;36.63;;
19057;SDS011;9662;53.612;9.914;2022-12-18T07:52:24;46.53;;;42.03;;
19057;SDS011;9662;53.612;9.914;2022-12-18T07:54:51;52.90;;;47.38;;
19057;SDS011;9662;53.612;9.914;2022-12-18T07:57:18;58.75;;;51.42;;
19057;SDS011;9662;53.612;9.914;2022-12-18T07:59:45;64.95;;;52.55;;
19057;SDS011;9662;53.612;9.914;2022-12-18T08:02:13;92.75;;;62.63;;
19057;SDS011;9662;53.612;9.914;2022-12-18T08:04:41;81.65;;;60.58;;
19057;SDS011;9662;53.612;9.914;2022-12-18T08:07:08;122.47;;;70.53;;
19057;SDS011;9662;53.612;9.914;2022-12-18T08:09:35;189.45;;;83.28;;
19057;SDS011;9662;53.612;9.914;2022-12-18T08:12:02;171.90;;;79.97;;
19057;SDS011;9662;53.612;9.914;2022-12-18T08:14:30;159.43;;;78.13;;
19057;SDS011;9662;53.612;9.914;2022-12-18T08:16:57;133.07;;;71.15;;
19057;SDS011;9662;53.612;9.914;2022-12-18T08:19:24;83.35;;;58.83;;
19057;SDS011;9662;53.612;9.914;2022-12-18T08:21:52;97.72;;;61.28;;
19057;SDS011;9662;53.612;9.914;2022-12-18T08:24:19;132.07;;;72.72;;
19057;SDS011;9662;53.612;9.914;2022-12-18T08:26:47;144.90;;;73.53;;
19057;SDS011;9662;53.612;9.914;2022-12-18T08:29:14;197.75;;;84.32;;
19057;SDS011;9662;53.612;9.914;2022-12-18T08:31:41;146.80;;;72.40;;
19057;SDS011;9662;53.612;9.914;2022-12-18T08:34:08;152.52;;;77.45;;
19057;SDS011;9662;53.612;9.914;2022-12-18T08:36:35;154.93;;;78.82;;
19057;SDS011;9662;53.612;9.914;2022-12-18T08:39:04;118.82;;;70.85;;
19057;SDS011;9662;53.612;9.914;2022-12-18T08:41:31;110.82;;;67.15;;
19057;SDS011;9662;53.612;9.914;2022-12-18T08:43:58;163.87;;;79.43;;
19057;SDS011;9662;53.612;9.914;2022-12-18T08:46:43;131.50;;;72.60;;
19057;SDS011;9662;53.612;9.914;2022-12-18T08:49:10;121.47;;;67.50;;
19057;SDS011;9662;53.612;9.914;2022-12-18T08:51:38;116.53;;;68.80;;
19057;SDS011;9662;53.612;9.914;2022-12-18T08:54:07;140.30;;;76.03;;
19057;SDS011;9662;53.612;9.914;2022-12-18T08:56:36;103.35;;;65.55;;
19057;SDS011;9662;53.612;9.914;2022-12-18T08:59:03;116.72;;;70.82;;
19057;SDS011;9662;53.612;9.914;2022-12-18T09:01:30;132.27;;;74.53;;
19057;SDS011;9662;53.612;9.914;2022-12-18T09:03:57;126.43;;;74.70;;
19057;SDS011;9662;53.612;9.914;2022-12-18T09:06:24;135.85;;;77.68;;
19057;SDS011;9662;53.612;9.914;2022-12-18T09:08:51;145.85;;;77.78;;
19057;SDS011;9662;53.612;9.914;2022-12-18T09:11:20;141.57;;;78.40;;
19057;SDS011;9662;53.612;9.914;2022-12-18T09:13:48;134.30;;;74.97;;
19057;SDS011;9662;53.612;9.914;2022-12-18T09:16:15;89.35;;;62.55;;
19057;SDS011;9662;53.612;9.914;2022-12-18T09:18:42;72.53;;;57.60;;
19057;SDS011;9662;53.612;9.914;2022-12-18T09:21:10;92.53;;;63.95;;
19057;SDS011;9662;53.612;9.914;2022-12-18T09:23:38;61.67;;;54.97;;
19057;SDS011;9662;53.612;9.914;2022-12-18T09:26:06;58.03;;;52.33;;
19057;SDS011;9662;53.612;9.914;2022-12-18T09:28:34;51.20;;;46.22;;
19057;SDS011;9662;53.612;9.914;2022-12-18T09:31:03;63.50;;;56.90;;
19057;SDS011;9662;53.612;9.914;2022-12-18T09:33:31;65.83;;;56.97;;
19057;SDS011;9662;53.612;9.914;2022-12-18T09:36:00;82.00;;;65.68;;
19057;SDS011;9662;53.612;9.914;2022-12-18T09:38:27;103.57;;;74.25;;
19057;SDS011;9662;53.612;9.914;2022-12-18T09:40:56;90.65;;;69.53;;
19057;SDS011;9662;53.612;9.914;2022-12-18T09:43:26;135.02;;;80.75;;
19057;SDS011;9662;53.612;9.914;2022-12-18T09:45:56;207.20;;;95.53;;
19057;SDS011;9662;53.612;9.914;2022-12-18T09:48:26;138.30;;;82.75;;
19057;SDS011;9662;53.612;9.914;2022-12-18T09:50:57;77.75;;;66.28;;
19057;SDS011;9662;53.612;9.914;2022-12-18T09:53:26;87.45;;;71.03;;
19057;SDS011;9662;53.612;9.914;2022-12-18T09:55:54;64.40;;;57.60;;
19057;SDS011;9662;53.612;9.914;2022-12-18T09:58:24;99.60;;;75.70;;
19057;SDS011;9662;53.612;9.914;2022-12-18T10:00:54;119.37;;;82.40;;
19057;SDS011;9662;53.612;9.914;2022-12-18T10:03:22;87.22;;;73.55;;
19057;SDS011;9662;53.612;9.914;2022-12-18T10:05:53;46.75;;;42.78;;
19057;SDS011;9662;53.612;9.914;2022-12-18T10:08:24;41.85;;;38.58;;
19057;SDS011;9662;53.612;9.914;2022-12-18T10:10:57;69.57;;;62.53;;
19057;SDS011;9662;53.612;9.914;2022-12-18T10:13:26;72.68;;;65.03;;
19057;SDS011;9662;53.612;9.914;2022-12-18T10:16:09;78.78;;;68.93;;
19057;SDS011;9662;53.612;9.914;2022-12-18T10:18:44;90.97;;;75.15;;
19057;SDS011;9662;53.612;9.914;2022-12-18T10:21:13;69.97;;;62.30;;
19057;SDS011;9662;53.612;9.914;2022-12-18T10:23:43;53.57;;;48.87;;
19057;SDS011;9662;53.612;9.914;2022-12-18T10:26:14;70.63;;;63.40;;
19057;SDS011;9662;53.612;9.914;2022-12-18T10:28:41;79.22;;;71.03;;
19057;SDS011;9662;53.612;9.914;2022-12-18T10:31:12;80.65;;;72.10;;
19057;SDS011;9662;53.612;9.914;2022-12-18T10:33:42;69.72;;;63.20;;
19057;SDS011;9662;53.612;9.914;2022-12-18T10:36:09;118.15;;;87.25;;
19057;SDS011;9662;53.612;9.914;2022-12-18T10:38:36;287.17;;;116.83;;
19057;SDS011;9662;53.612;9.914;2022-12-18T10:41:04;180.05;;;101.63;;
19057;SDS011;9662;53.612;9.914;2022-12-18T10:43:34;211.65;;;107.32;;
19057;SDS011;9662;53.612;9.914;2022-12-18T10:46:04;205.20;;;107.95;;
19057;SDS011;9662;53.612;9.914;2022-12-18T10:48:33;203.93;;;111.80;;
19057;SDS011;9662;53.612;9.914;2022-12-18T10:51:02;188.90;;;106.10;;
19057;SDS011;9662;53.612;9.914;2022-12-18T10:53:30;123.88;;;91.93;;
19057;SDS011;9662;53.612;9.914;2022-12-18T10:55:58;98.25;;;83.10;;
19057;SDS011;9662;53.612;9.914;2022-12-18T10:58:29;79.78;;;71.80;;
19057;SDS011;9662;53.612;9.914;2022-12-18T11:01:04;116.90;;;92.40;;
19057;SDS011;9662;53.612;9.914;2022-12-18T11:03:33;96.78;;;84.63;;
19057;SDS011;9662;53.612;9.914;2022-12-18T11:06:04;124.85;;;94.88;;
19057;SDS011;9662;53.612;9.914;2022-12-18T11:08:31;97.82;;;87.22;;
19057;SDS011;9662;53.612;9.914;2022-12-18T11:10:58;105.38;;;91.07;;
19057;SDS011;9662;53.612;9.914;2022-12-18T11:13:26;138.50;;;102.83;;
19057;SDS011;9662;53.612;9.914;2022-12-18T11:15:54;125.43;;;99.07;;
19057;SDS011;9662;53.612;9.914;2022-12-18T11:18:22;150.90;;;107.90;;
19057;SDS011;9662;53.612;9.914;2022-12-18T11:20:52;166.18;;;111.45;;
19057;SDS011;9662;53.612;9.914;2022-12-18T11:23:22;167.63;;;111.00;;
19057;SDS011;9662;53.612;9.914;2022-12-18T11:25:50;147.52;;;105.07;;
19057;SDS011;9662;53.612;9.914;2022-12-18T11:28:25;186.73;;;119.22;;
19057;SDS011;9662;53.612;9.914;2022-12-18T11:31:08;127.93;;;101.57;;
19057;SDS011;9662;53.612;9.914;2022-12-18T11:33:36;109.17;;;93.27;;
19057;SDS011;9662;53.612;9.914;2022-12-18T11:36:05;100.97;;;89.77;;
19057;SDS011;9662;53.612;9.914;2022-12-18T11:38:36;112.80;;;96.20;;
19057;SDS011;9662;53.612;9.914;2022-12-18T11:41:05;117.93;;;96.40;;
19057;SDS011;9662;53.612;9.914;2022-12-18T11:43:35;100.63;;;89.75;;
19057;SDS011;9662;53.612;9.914;2022-12-18T11:46:07;118.13;;;97.03;;
19057;SDS011;9662;53.612;9.914;2022-12-18T11:48:38;119.60;;;97.80;;
19057;SDS011;9662;53.612;9.914;2022-12-18T11:51:09;131.05;;;103.60;;
19057;SDS011;9662;53.612;9.914;2022-12-18T11:53:39;172.50;;;118.22;;
19057;SDS011;9662;53.612;9.914;2022-12-18T11:56:12;239.48;;;125.55;;
19057;SDS011;9662;53.612;9.914;2022-12-18T11:58:46;233.00;;;124.70;;
19057;SDS011;9662;53.612;9.914;2022-12-18T12:01:24;152.48;;;108.30;;
19057;SDS011;9662;53.612;9.914;2022-12-18T12:04:02;97.35;;;87.60;;
19057;SDS011;9662;53.612;9.914;2022-12-18T12:06:33;104.05;;;92.75;;
19057;SDS011;9662;53.612;9.914;2022-12-18T12:09:07;102.83;;;91.73;;
19057;SDS011;9662;53.612;9.914;2022-12-18T12:11:39;81.40;;;73.80;;
19057;SDS011;9662;53.612;9.914;2022-12-18T12:14:16;93.03;;;83.33;;
19057;SDS011;9662;53.612;9.914;2022-12-18T12:16:48;70.82;;;64.55;;
19057;SDS011;9662;53.612;9.914;2022-12-18T12:19:20;92.70;;;83.03;;
19057;SDS011;9662;53.612;9.914;2022-12-18T12:21:55;81.90;;;74.20;;
19057;SDS011;9662;53.612;9.914;2022-12-18T12:24:29;86.63;;;78.55;;
19057;SDS011;9662;53.612;9.914;2022-12-18T12:27:01;91.47;;;83.15;;
19057;SDS011;9662;53.612;9.914;2022-12-18T12:29:36;89.22;;;80.40;;
19057;SDS011;9662;53.612;9.914;2022-12-18T12:32:10;82.47;;;74.53;;
19057;SDS011;9662;53.612;9.914;2022-12-18T12:34:41;84.95;;;77.07;;
19057;SDS011;9662;53.612;9.914;2022-12-18T12:37:18;113.85;;;100.75;;
19057;SDS011;9662;53.612;9.914;2022-12-18T12:39:48;128.88;;;104.90;;
19057;SDS011;9662;53.612;9.914;2022-12-18T12:42:18;102.03;;;91.38;;
19057;SDS011;9662;53.612;9.914;2022-12-18T12:45:05;142.03;;;109.53;;
19057;SDS011;9662;53.612;9.914;2022-12-18T12:47:33;158.50;;;115.55;;
19057;SDS011;9662;53.612;9.914;2022-12-18T12:50:03;143.57;;;112.60;;
19057;SDS011;9662;53.612;9.914;2022-12-18T12:52:33;151.18;;;114.82;;
19057;SDS011;9662;53.612;9.914;2022-12-18T12:55:04;111.80;;;99.80;;
19057;SDS011;9662;53.612;9.914;2022-12-18T12:57:36;112.88;;;100.68;;
19057;SDS011;9662;53.612;9.914;2022-12-18T13:00:05;131.45;;;107.85;;
19057;SDS011;9662;53.612;9.914;2022-12-18T13:05:38;156.13;;;119.70;;
19057;SDS011;9662;53.612;9.914;2022-12-18T13:08:07;138.10;;;115.07;;
19057;SDS011;9662;53.612;9.914;2022-12-18T13:10:37;194.85;;;128.25;;
19057;SDS011;9662;53.612;9.914;2022-12-18T13:13:05;140.35;;;117.38;;
19057;SDS011;9662;53.612;9.914;2022-12-18T13:15:37;149.32;;;118.15;;
19057;SDS011;9662;53.612;9.914;2022-12-18T13:18:06;250.65;;;142.52;;
19057;SDS011;9662;53.612;9.914;2022-12-18T13:20:38;213.43;;;136.10;;
19057;SDS011;9662;53.612;9.914;2022-12-18T13:23:19;171.20;;;127.43;;
19057;SDS011;9662;53.612;9.914;2022-12-18T13:25:49;180.20;;;125.30;;
19057;SDS011;9662;53.612;9.914;2022-12-18T13:28:16;141.73;;;114.82;;
19057;SDS011;9662;53.612;9.914;2022-12-18T13:30:45;117.83;;;105.13;;
19057;SDS011;9662;53.612;9.914;2022-12-18T13:33:34;108.50;;;96.82;;
19057;SDS011;9662;53.612;9.914;2022-12-18T13:36:09;144.75;;;115.47;;
19057;SDS011;9662;53.612;9.914;2022-12-18T13:38:39;96.70;;;87.45;;
19057;SDS011;9662;53.612;9.914;2022-12-18T13:43:50;152.43;;;113.70;;
19057;SDS011;9662;53.612;9.914;2022-12-18T13:46:19;164.55;;;115.53;;
19057;SDS011;9662;53.612;9.914;2022-12-18T13:48:50;164.60;;;112.40;;
19057;SDS011;9662;53.612;9.914;2022-12-18T13:51:18;327.90;;;129.93;;
19057;SDS011;9662;53.612;9.914;2022-12-18T13:53:47;279.57;;;130.70;;
19057;SDS011;9662;53.612;9.914;2022-12-18T13:56:22;271.98;;;126.95;;
19057;SDS011;9662;53.612;9.914;2022-12-18T14:01:40;117.77;;;95.77;;
19057;SDS011;9662;53.612;9.914;2022-12-18T14:04:08;114.20;;;90.57;;
19057;SDS011;9662;53.612;9.914;2022-12-18T14:06:35;87.65;;;78.40;;
19057;SDS011;9662;53.612;9.914;2022-12-18T14:09:03;121.45;;;94.57;;
19057;SDS011;9662;53.612;9.914;2022-12-18T14:11:30;125.28;;;97.45;;
19057;SDS011;9662;53.612;9.914;2022-12-18T14:13:57;122.25;;;94.32;;
19057;SDS011;9662;53.612;9.914;2022-12-18T14:16:24;113.40;;;92.35;;
19057;SDS011;9662;53.612;9.914;2022-12-18T14:18:53;138.38;;;96.85;;
19057;SDS011;9662;53.612;9.914;2022-12-18T14:21:21;109.40;;;89.95;;
19057;SDS011;9662;53.612;9.914;2022-12-18T14:23:54;124.97;;;93.95;;
19057;SDS011;9662;53.612;9.914;2022-12-18T14:26:29;109.80;;;88.38;;
19057;SDS011;9662;53.612;9.914;2022-12-18T14:28:58;130.02;;;95.45;;
19057;SDS011;9662;53.612;9.914;2022-12-18T14:31:27;148.43;;;102.38;;
19057;SDS011;9662;53.612;9.914;2022-12-18T14:33:56;181.35;;;108.22;;
19057;SDS011;9662;53.612;9.914;2022-12-18T14:36:24;204.63;;;110.25;;
19057;SDS011;9662;53.612;9.914;2022-12-18T14:38:51;151.25;;;100.43;;
19057;SDS011;9662;53.612;9.914;2022-12-18T14:41:19;252.52;;;115.35;;
19057;SDS011;9662;53.612;9.914;2022-12-18T14:43:47;166.35;;;98.22;;
19057;SDS011;9662;53.612;9.914;2022-12-18T14:46:28;157.20;;;98.55;;